sensor_id;sensor_type;location;lat;lon;timestamp;pressure;altitude;pressure_sealevel;temperature;humidity
59545;BME280;45368;55.002;-1.592;2023-02-13T00:01:02;102665.22;;;6.11;54.04
59545;BME280;45368;55.002;-1.592;2023-02-13T00:03:30;102663.37;;;5.59;55.25
59545;BME280;45368;55.002;-1.592;2023-02-13T00:05:57;102661.58;;;5.03;56.11
59545;BME280;45368;55.002;-1.592;2023-02-13T00:08:24;102653.47;;;6.17;54.06
59545;BME280;45368;55.002;-1.592;2023-02-13T00:10:52;102657.57;;;5.97;54.82
59545;BME280;45368;55.002;-1.592;2023-02-13T00:13:20;102657.02;;;6.18;54.35
59545;BME280;45368;55.002;-1.592;2023-02-13T00:15:55;102654.14;;;6.00;54.91
59545;BME280;45368;55.002;-1.592;2023-02-13T00:18:22;102649.86;;;5.55;55.48
59545;BME280;45368;55.002;-1.592;2023-02-13T00:20:57;102652.76;;;4.92;57.57
59545;BME280;45368;55.002;-1.592;2023-02-13T00:23:24;102644.36;;;5.95;55.53
59545;BME280;45368;55.002;-1.592;2023-02-13T00:25:52;102650.04;;;5.48;56.05
59545;BME280;45368;55.002;-1.592;2023-02-13T00:28:19;102647.99;;;4.77;57.24
59545;BME280;45368;55.002;-1.592;2023-02-13T00:30:46;102645.91;;;5.92;55.67
59545;BME280;45368;55.002;-1.592;2023-02-13T00:33:13;102649.01;;;4.45;58.05
59545;BME280;45368;55.002;-1.592;2023-02-13T00:35:41;102647.29;;;4.70;58.19
59545;BME280;45368;55.002;-1.592;2023-02-13T00:38:08;102642.56;;;4.91;58.74
59545;BME280;45368;55.002;-1.592;2023-02-13T00:40:36;102644.11;;;4.58;59.31
59545;BME280;45368;55.002;-1.592;2023-02-13T00:43:03;102646.12;;;4.70;59.27
59545;BME280;45368;55.002;-1.592;2023-02-13T00:45:30;102643.54;;;5.28;58.14
59545;BME280;45368;55.002;-1.592;2023-02-13T00:47:57;102646.38;;;4.94;58.83
59545;BME280;45368;55.002;-1.592;2023-02-13T00:50:24;102646.04;;;4.77;59.61
59545;BME280;45368;55.002;-1.592;2023-02-13T00:52:52;102643.09;;;4.21;60.89
59545;BME280;45368;55.002;-1.592;2023-02-13T00:55:19;102644.67;;;4.04;60.96
59545;BME280;45368;55.002;-1.592;2023-02-13T00:57:46;102646.42;;;3.68;61.98
59545;BME280;45368;55.002;-1.592;2023-02-13T01:00:14;102639.11;;;4.35;60.09
59545;BME280;45368;55.002;-1.592;2023-02-13T01:02:42;102637.21;;;4.61;58.99
59545;BME280;45368;55.002;-1.592;2023-02-13T01:05:09;102634.12;;;4.33;59.94
59545;BME280;45368;55.002;-1.592;2023-02-13T01:07:36;102632.71;;;3.33;62.50
59545;BME280;45368;55.002;-1.592;2023-02-13T01:10:05;102632.73;;;3.54;62.41
59545;BME280;45368;55.002;-1.592;2023-02-13T01:12:32;102626.86;;;3.66;62.23
59545;BME280;45368;55.002;-1.592;2023-02-13T01:14:59;102627.85;;;3.77;62.09
59545;BME280;45368;55.002;-1.592;2023-02-13T01:17:27;102627.23;;;3.62;62.25
59545;BME280;45368;55.002;-1.592;2023-02-13T01:19:54;102626.17;;;4.00;61.58
59545;BME280;45368;55.002;-1.592;2023-02-13T01:22:22;102624.64;;;3.58;62.12
59545;BME280;45368;55.002;-1.592;2023-02-13T01:24:49;102628.00;;;3.76;62.01
59545;BME280;45368;55.002;-1.592;2023-02-13T01:27:16;102627.02;;;3.47;62.63
59545;BME280;45368;55.002;-1.592;2023-02-13T01:29:43;102627.52;;;3.86;61.60
59545;BME280;45368;55.002;-1.592;2023-02-13T01:32:10;102627.90;;;3.60;61.98
59545;BME280;45368;55.002;-1.592;2023-02-13T01:34:37;102626.37;;;3.50;62.48
59545;BME280;45368;55.002;-1.592;2023-02-13T01:37:05;102626.79;;;3.63;61.75
59545;BME280;45368;55.002;-1.592;2023-02-13T01:39:32;102627.30;;;3.52;61.71
59545;BME280;45368;55.002;-1.592;2023-02-13T01:41:59;102628.12;;;3.65;62.08
59545;BME280;45368;55.002;-1.592;2023-02-13T01:45:00;102626.36;;;3.34;62.09
59545;BME280;45368;55.002;-1.592;2023-02-13T01:47:32;102625.19;;;3.71;60.77
59545;BME280;45368;55.002;-1.592;2023-02-13T01:50:07;102622.97;;;3.90;60.85
59545;BME280;45368;55.002;-1.592;2023-02-13T01:52:40;102617.70;;;4.02;60.21
59545;BME280;45368;55.002;-1.592;2023-02-13T01:55:10;102617.04;;;4.23;59.56
59545;BME280;45368;55.002;-1.592;2023-02-13T01:57:39;102613.38;;;3.82;60.13
59545;BME280;45368;55.002;-1.592;2023-02-13T02:00:11;102615.76;;;3.83;59.90
59545;BME280;45368;55.002;-1.592;2023-02-13T02:02:43;102613.46;;;4.19;59.67
59545;BME280;45368;55.002;-1.592;2023-02-13T02:05:11;102616.87;;;3.45;61.68
59545;BME280;45368;55.002;-1.592;2023-02-13T02:07:40;102613.18;;;4.22;59.59
59545;BME280;45368;55.002;-1.592;2023-02-13T02:10:12;102611.47;;;4.19;60.58
59545;BME280;45368;55.002;-1.592;2023-02-13T02:12:44;102613.53;;;3.82;60.78
59545;BME280;45368;55.002;-1.592;2023-02-13T02:15:14;102610.19;;;3.37;61.38
59545;BME280;45368;55.002;-1.592;2023-02-13T02:17:41;102607.06;;;3.71;61.50
59545;BME280;45368;55.002;-1.592;2023-02-13T02:20:19;102597.57;;;3.44;62.42
59545;BME280;45368;55.002;-1.592;2023-02-13T02:23:07;102596.37;;;3.52;61.89
59545;BME280;45368;55.002;-1.592;2023-02-13T02:26:03;102594.33;;;3.11;62.48
59545;BME280;45368;55.002;-1.592;2023-02-13T02:29:01;102584.78;;;3.97;60.43
59545;BME280;45368;55.002;-1.592;2023-02-13T02:31:52;102586.36;;;3.13;62.33
59545;BME280;45368;55.002;-1.592;2023-02-13T02:34:31;102582.90;;;3.43;61.69
59545;BME280;45368;55.002;-1.592;2023-02-13T02:37:15;102575.57;;;4.08;60.20
59545;BME280;45368;55.002;-1.592;2023-02-13T02:39:51;102575.18;;;3.04;61.55
59545;BME280;45368;55.002;-1.592;2023-02-13T02:42:30;102569.22;;;3.70;60.52
59545;BME280;45368;55.002;-1.592;2023-02-13T02:45:08;102571.38;;;3.44;61.69
59545;BME280;45368;55.002;-1.592;2023-02-13T02:47:43;102569.52;;;3.01;61.89
59545;BME280;45368;55.002;-1.592;2023-02-13T02:50:26;102568.06;;;2.79;62.64
59545;BME280;45368;55.002;-1.592;2023-02-13T02:53:05;102564.80;;;3.29;61.85
59545;BME280;45368;55.002;-1.592;2023-02-13T02:55:40;102554.47;;;3.68;61.17
59545;BME280;45368;55.002;-1.592;2023-02-13T02:58:14;102544.15;;;4.79;58.20
59545;BME280;45368;55.002;-1.592;2023-02-13T03:00:45;102549.23;;;4.36;59.05
59545;BME280;45368;55.002;-1.592;2023-02-13T03:03:18;102553.60;;;4.05;59.07
59545;BME280;45368;55.002;-1.592;2023-02-13T03:05:47;102551.91;;;4.32;58.71
59545;BME280;45368;55.002;-1.592;2023-02-13T03:08:17;102548.61;;;3.92;60.11
59545;BME280;45368;55.002;-1.592;2023-02-13T03:10:46;102546.44;;;3.59;61.02
59545;BME280;45368;55.002;-1.592;2023-02-13T03:13:17;102544.72;;;3.67;60.93
59545;BME280;45368;55.002;-1.592;2023-02-13T03:15:58;102545.68;;;3.41;60.68
59545;BME280;45368;55.002;-1.592;2023-02-13T03:18:28;102547.84;;;3.86;59.43
59545;BME280;45368;55.002;-1.592;2023-02-13T03:21:06;102545.77;;;4.74;58.10
59545;BME280;45368;55.002;-1.592;2023-02-13T03:23:49;102542.19;;;4.16;58.50
59545;BME280;45368;55.002;-1.592;2023-02-13T03:26:36;102540.56;;;4.49;58.29
59545;BME280;45368;55.002;-1.592;2023-02-13T03:29:09;102544.98;;;3.57;60.45
59545;BME280;45368;55.002;-1.592;2023-02-13T03:31:47;102547.86;;;3.84;59.91
59545;BME280;45368;55.002;-1.592;2023-02-13T03:34:19;102543.81;;;3.46;60.21
59545;BME280;45368;55.002;-1.592;2023-02-13T03:36:51;102545.59;;;3.01;60.94
59545;BME280;45368;55.002;-1.592;2023-02-13T03:39:30;102534.74;;;4.34;59.17
59545;BME280;45368;55.002;-1.592;2023-02-13T03:42:05;102540.15;;;3.58;60.25
59545;BME280;45368;55.002;-1.592;2023-02-13T03:44:38;102534.01;;;4.59;58.32
59545;BME280;45368;55.002;-1.592;2023-02-13T03:47:08;102536.12;;;4.49;57.97
59545;BME280;45368;55.002;-1.592;2023-02-13T03:49:41;102538.47;;;4.26;59.41
59545;BME280;45368;55.002;-1.592;2023-02-13T03:52:16;102546.50;;;3.49;60.64
59545;BME280;45368;55.002;-1.592;2023-02-13T03:54:48;102550.24;;;3.72;60.15
59545;BME280;45368;55.002;-1.592;2023-02-13T03:57:19;102548.79;;;3.74;59.45
59545;BME280;45368;55.002;-1.592;2023-02-13T03:59:47;102548.40;;;3.78;59.26
59545;BME280;45368;55.002;-1.592;2023-02-13T04:02:19;102547.64;;;2.42;62.91
59545;BME280;45368;55.002;-1.592;2023-02-13T04:04:53;102551.50;;;3.62;60.94
59545;BME280;45368;55.002;-1.592;2023-02-13T04:07:25;102552.13;;;2.88;61.90
59545;BME280;45368;55.002;-1.592;2023-02-13T04:09:52;102546.44;;;3.57;62.01
59545;BME280;45368;55.002;-1.592;2023-02-13T04:12:22;102542.79;;;3.42;62.66
59545;BME280;45368;55.002;-1.592;2023-02-13T04:14:58;102541.16;;;2.86;62.60
59545;BME280;45368;55.002;-1.592;2023-02-13T04:17:31;102542.84;;;2.82;63.33
59545;BME280;45368;55.002;-1.592;2023-02-13T04:20:00;102545.28;;;2.39;64.54
59545;BME280;45368;55.002;-1.592;2023-02-13T04:22:27;102545.94;;;3.13;62.61
59545;BME280;45368;55.002;-1.592;2023-02-13T04:24:54;102548.61;;;2.67;63.09
59545;BME280;45368;55.002;-1.592;2023-02-13T04:27:24;102550.64;;;3.16;62.81
59545;BME280;45368;55.002;-1.592;2023-02-13T04:29:52;102546.76;;;2.97;63.08
59545;BME280;45368;55.002;-1.592;2023-02-13T04:32:19;102541.24;;;3.55;61.09
59545;BME280;45368;55.002;-1.592;2023-02-13T04:34:47;102541.86;;;3.18;61.93
59545;BME280;45368;55.002;-1.592;2023-02-13T04:37:14;102540.78;;;3.61;60.81
59545;BME280;45368;55.002;-1.592;2023-02-13T04:39:42;102548.21;;;2.86;62.42
59545;BME280;45368;55.002;-1.592;2023-02-13T04:42:14;102544.12;;;3.22;63.13
59545;BME280;45368;55.002;-1.592;2023-02-13T04:44:41;102548.41;;;3.07;63.16
59545;BME280;45368;55.002;-1.592;2023-02-13T04:47:08;102541.48;;;2.98;63.07
59545;BME280;45368;55.002;-1.592;2023-02-13T04:49:36;102540.97;;;2.48;64.93
59545;BME280;45368;55.002;-1.592;2023-02-13T04:52:04;102538.91;;;2.12;65.16
59545;BME280;45368;55.002;-1.592;2023-02-13T04:54:31;102538.29;;;2.50;63.29
59545;BME280;45368;55.002;-1.592;2023-02-13T04:56:58;102535.70;;;3.51;60.86
59545;BME280;45368;55.002;-1.592;2023-02-13T04:59:26;102536.70;;;2.47;63.30
59545;BME280;45368;55.002;-1.592;2023-02-13T05:01:53;102535.06;;;2.53;64.47
59545;BME280;45368;55.002;-1.592;2023-02-13T05:04:20;102534.55;;;3.11;63.19
59545;BME280;45368;55.002;-1.592;2023-02-13T05:06:59;102533.33;;;2.43;63.73
59545;BME280;45368;55.002;-1.592;2023-02-13T05:09:30;102531.41;;;2.85;63.22
59545;BME280;45368;55.002;-1.592;2023-02-13T05:11:57;102528.71;;;3.43;61.26
59545;BME280;45368;55.002;-1.592;2023-02-13T05:14:24;102523.92;;;3.16;61.95
59545;BME280;45368;55.002;-1.592;2023-02-13T05:16:52;102524.90;;;3.57;61.04
59545;BME280;45368;55.002;-1.592;2023-02-13T05:19:20;102522.16;;;4.04;59.58
59545;BME280;45368;55.002;-1.592;2023-02-13T05:21:47;102522.44;;;3.28;60.52
59545;BME280;45368;55.002;-1.592;2023-02-13T05:25:16;102520.78;;;3.37;61.26
59545;BME280;45368;55.002;-1.592;2023-02-13T05:27:43;102518.22;;;3.45;61.30
59545;BME280;45368;55.002;-1.592;2023-02-13T05:30:12;102511.88;;;3.39;61.13
59545;BME280;45368;55.002;-1.592;2023-02-13T05:32:40;102521.26;;;3.38;62.76
59545;BME280;45368;55.002;-1.592;2023-02-13T05:35:07;102517.49;;;3.46;61.01
59545;BME280;45368;55.002;-1.592;2023-02-13T05:37:35;102520.95;;;3.19;61.50
59545;BME280;45368;55.002;-1.592;2023-02-13T05:40:03;102511.92;;;2.92;62.06
59545;BME280;45368;55.002;-1.592;2023-02-13T05:42:30;102510.00;;;2.96;62.91
59545;BME280;45368;55.002;-1.592;2023-02-13T05:44:58;102511.30;;;2.27;64.40
59545;BME280;45368;55.002;-1.592;2023-02-13T05:47:25;102499.79;;;3.45;61.45
59545;BME280;45368;55.002;-1.592;2023-02-13T05:49:52;102502.15;;;2.62;63.67
59545;BME280;45368;55.002;-1.592;2023-02-13T05:52:19;102500.92;;;2.88;63.30
59545;BME280;45368;55.002;-1.592;2023-02-13T05:54:47;102507.48;;;3.56;60.77
59545;BME280;45368;55.002;-1.592;2023-02-13T05:57:14;102507.18;;;3.57;60.37
59545;BME280;45368;55.002;-1.592;2023-02-13T05:59:42;102508.32;;;2.86;61.84
59545;BME280;45368;55.002;-1.592;2023-02-13T06:02:09;102505.75;;;3.78;60.39
59545;BME280;45368;55.002;-1.592;2023-02-13T06:04:36;102509.99;;;3.61;59.84
59545;BME280;45368;55.002;-1.592;2023-02-13T06:07:03;102518.90;;;3.14;61.24
59545;BME280;45368;55.002;-1.592;2023-02-13T06:09:30;102519.19;;;3.37;61.03
59545;BME280;45368;55.002;-1.592;2023-02-13T06:11:57;102513.77;;;3.92;59.00
59545;BME280;45368;55.002;-1.592;2023-02-13T06:14:25;102523.90;;;2.80;61.17
59545;BME280;45368;55.002;-1.592;2023-02-13T06:16:52;102514.71;;;4.63;57.23
59545;BME280;45368;55.002;-1.592;2023-02-13T06:19:19;102525.95;;;3.51;58.51
59545;BME280;45368;55.002;-1.592;2023-02-13T06:21:46;102530.85;;;3.52;59.66
59545;BME280;45368;55.002;-1.592;2023-02-13T06:24:14;102526.17;;;3.81;58.50
59545;BME280;45368;55.002;-1.592;2023-02-13T06:26:41;102524.65;;;3.56;58.95
59545;BME280;45368;55.002;-1.592;2023-02-13T06:29:09;102539.00;;;1.71;63.57
59545;BME280;45368;55.002;-1.592;2023-02-13T06:31:41;102541.16;;;2.95;61.51
59545;BME280;45368;55.002;-1.592;2023-02-13T06:34:08;102537.65;;;3.01;61.27
59545;BME280;45368;55.002;-1.592;2023-02-13T06:36:35;102536.80;;;3.27;59.99
59545;BME280;45368;55.002;-1.592;2023-02-13T06:39:03;102534.62;;;3.03;60.05
59545;BME280;45368;55.002;-1.592;2023-02-13T06:41:30;102535.17;;;3.22;59.93
59545;BME280;45368;55.002;-1.592;2023-02-13T06:43:57;102522.03;;;4.13;57.97
59545;BME280;45368;55.002;-1.592;2023-02-13T06:46:25;102525.86;;;2.81;60.10
59545;BME280;45368;55.002;-1.592;2023-02-13T06:48:53;102524.56;;;3.01;59.98
59545;BME280;45368;55.002;-1.592;2023-02-13T06:51:20;102522.96;;;2.58;61.33
59545;BME280;45368;55.002;-1.592;2023-02-13T06:53:47;102522.74;;;2.69;60.75
59545;BME280;45368;55.002;-1.592;2023-02-13T06:56:15;102525.29;;;2.69;61.47
59545;BME280;45368;55.002;-1.592;2023-02-13T06:58:42;102525.74;;;2.29;62.18
59545;BME280;45368;55.002;-1.592;2023-02-13T07:01:10;102525.82;;;2.64;61.25
59545;BME280;45368;55.002;-1.592;2023-02-13T07:03:42;102520.25;;;2.07;61.56
59545;BME280;45368;55.002;-1.592;2023-02-13T07:06:10;102514.45;;;3.08;60.54
59545;BME280;45368;55.002;-1.592;2023-02-13T07:08:42;102507.21;;;4.38;56.75
59545;BME280;45368;55.002;-1.592;2023-02-13T07:11:16;102500.40;;;5.21;54.41
59545;BME280;45368;55.002;-1.592;2023-02-13T07:13:43;102498.21;;;6.03;53.03
59545;BME280;45368;55.002;-1.592;2023-02-13T07:16:11;102497.40;;;5.78;51.87
59545;BME280;45368;55.002;-1.592;2023-02-13T07:18:38;102499.65;;;4.62;53.65
59545;BME280;45368;55.002;-1.592;2023-02-13T07:21:06;102501.07;;;3.50;55.75
59545;BME280;45368;55.002;-1.592;2023-02-13T07:23:33;102498.14;;;4.11;54.12
59545;BME280;45368;55.002;-1.592;2023-02-13T07:26:02;102512.55;;;2.52;59.86
59545;BME280;45368;55.002;-1.592;2023-02-13T07:28:30;102513.21;;;3.27;58.56
59545;BME280;45368;55.002;-1.592;2023-02-13T07:30:57;102508.35;;;5.38;53.84
59545;BME280;45368;55.002;-1.592;2023-02-13T07:33:29;102511.08;;;5.65;52.37
59545;BME280;45368;55.002;-1.592;2023-02-13T07:35:56;102518.97;;;5.88;51.09
59545;BME280;45368;55.002;-1.592;2023-02-13T07:38:23;102516.63;;;6.11;49.90
59545;BME280;45368;55.002;-1.592;2023-02-13T07:40:51;102516.61;;;5.56;49.96
59545;BME280;45368;55.002;-1.592;2023-02-13T07:43:18;102523.25;;;5.95;50.13
59545;BME280;45368;55.002;-1.592;2023-02-13T07:45:46;102533.28;;;4.57;52.37
59545;BME280;45368;55.002;-1.592;2023-02-13T07:48:13;102528.32;;;5.62;50.42
59545;BME280;45368;55.002;-1.592;2023-02-13T07:50:41;102531.01;;;5.56;49.74
59545;BME280;45368;55.002;-1.592;2023-02-13T07:53:08;102530.27;;;5.82;49.43
59545;BME280;45368;55.002;-1.592;2023-02-13T07:55:36;102529.35;;;5.53;49.30
59545;BME280;45368;55.002;-1.592;2023-02-13T07:58:03;102533.27;;;5.23;50.63
59545;BME280;45368;55.002;-1.592;2023-02-13T08:00:33;102532.55;;;5.29;50.81
59545;BME280;45368;55.002;-1.592;2023-02-13T08:03:02;102535.31;;;4.75;50.83
59545;BME280;45368;55.002;-1.592;2023-02-13T08:05:31;102538.33;;;4.85;51.11
59545;BME280;45368;55.002;-1.592;2023-02-13T08:07:59;102534.54;;;5.15;50.38
59545;BME280;45368;55.002;-1.592;2023-02-13T08:10:27;102532.50;;;4.92;50.33
59545;BME280;45368;55.002;-1.592;2023-02-13T08:12:55;102531.17;;;4.87;50.40
59545;BME280;45368;55.002;-1.592;2023-02-13T08:15:22;102525.09;;;5.78;48.66
59545;BME280;45368;55.002;-1.592;2023-02-13T08:17:49;102534.32;;;4.76;50.23
59545;BME280;45368;55.002;-1.592;2023-02-13T08:20:17;102530.81;;;4.66;50.46
59545;BME280;45368;55.002;-1.592;2023-02-13T08:22:44;102535.15;;;4.35;52.32
59545;BME280;45368;55.002;-1.592;2023-02-13T08:25:12;102533.22;;;4.75;50.67
59545;BME280;45368;55.002;-1.592;2023-02-13T08:27:39;102523.94;;;5.18;49.88
59545;BME280;45368;55.002;-1.592;2023-02-13T08:30:08;102515.96;;;5.76;48.74
59545;BME280;45368;55.002;-1.592;2023-02-13T08:32:36;102521.29;;;3.81;52.36
59545;BME280;45368;55.002;-1.592;2023-02-13T08:35:04;102514.21;;;5.31;50.33
59545;BME280;45368;55.002;-1.592;2023-02-13T08:37:31;102510.19;;;6.17;48.71
59545;BME280;45368;55.002;-1.592;2023-02-13T08:39:58;102511.38;;;5.62;49.07
59545;BME280;45368;55.002;-1.592;2023-02-13T08:42:26;102511.85;;;6.25;48.72
59545;BME280;45368;55.002;-1.592;2023-02-13T08:44:54;102519.36;;;6.02;48.45
59545;BME280;45368;55.002;-1.592;2023-02-13T08:47:21;102523.05;;;6.25;48.38
59545;BME280;45368;55.002;-1.592;2023-02-13T08:49:49;102525.34;;;6.70;47.58
59545;BME280;45368;55.002;-1.592;2023-02-13T08:52:16;102528.67;;;6.93;47.28
59545;BME280;45368;55.002;-1.592;2023-02-13T08:54:44;102524.57;;;6.27;47.96
59545;BME280;45368;55.002;-1.592;2023-02-13T08:57:11;102525.18;;;4.97;51.75
59545;BME280;45368;55.002;-1.592;2023-02-13T08:59:38;102529.38;;;3.77;54.93
59545;BME280;45368;55.002;-1.592;2023-02-13T09:02:08;102532.46;;;4.58;53.43
59545;BME280;45368;55.002;-1.592;2023-02-13T09:04:36;102539.52;;;3.85;54.87
59545;BME280;45368;55.002;-1.592;2023-02-13T09:07:03;102548.86;;;3.35;57.05
59545;BME280;45368;55.002;-1.592;2023-02-13T09:09:31;102541.72;;;4.52;54.79
59545;BME280;45368;55.002;-1.592;2023-02-13T09:11:58;102537.41;;;3.77;55.79
59545;BME280;45368;55.002;-1.592;2023-02-13T09:14:26;102536.25;;;3.63;56.35
59545;BME280;45368;55.002;-1.592;2023-02-13T09:16:53;102540.19;;;3.08;57.83
59545;BME280;45368;55.002;-1.592;2023-02-13T09:19:21;102535.29;;;4.10;55.78
59545;BME280;45368;55.002;-1.592;2023-02-13T09:21:48;102535.72;;;4.84;54.08
59545;BME280;45368;55.002;-1.592;2023-02-13T09:24:15;102545.07;;;3.69;56.01
59545;BME280;45368;55.002;-1.592;2023-02-13T09:26:42;102540.65;;;3.39;56.48
59545;BME280;45368;55.002;-1.592;2023-02-13T09:29:09;102546.08;;;2.75;58.03
59545;BME280;45368;55.002;-1.592;2023-02-13T09:31:37;102553.18;;;2.92;57.74
59545;BME280;45368;55.002;-1.592;2023-02-13T09:34:04;102550.30;;;2.69;58.02
59545;BME280;45368;55.002;-1.592;2023-02-13T09:36:32;102546.31;;;3.44;57.61
59545;BME280;45368;55.002;-1.592;2023-02-13T09:38:59;102541.03;;;3.39;56.79
59545;BME280;45368;55.002;-1.592;2023-02-13T09:41:28;102540.10;;;3.46;57.81
59545;BME280;45368;55.002;-1.592;2023-02-13T09:43:59;102542.35;;;3.44;57.58
59545;BME280;45368;55.002;-1.592;2023-02-13T09:46:32;102535.42;;;3.94;55.46
59545;BME280;45368;55.002;-1.592;2023-02-13T09:49:03;102540.34;;;3.67;56.15
59545;BME280;45368;55.002;-1.592;2023-02-13T09:51:34;102540.67;;;2.99;58.77
59545;BME280;45368;55.002;-1.592;2023-02-13T09:54:04;102540.80;;;2.80;59.56
59545;BME280;45368;55.002;-1.592;2023-02-13T09:56:39;102545.24;;;2.28;60.22
59545;BME280;45368;55.002;-1.592;2023-02-13T09:59:26;102543.46;;;2.75;59.84
59545;BME280;45368;55.002;-1.592;2023-02-13T10:02:01;102541.49;;;3.23;58.41
59545;BME280;45368;55.002;-1.592;2023-02-13T10:04:34;102534.25;;;3.12;58.65
59545;BME280;45368;55.002;-1.592;2023-02-13T10:07:16;102532.19;;;3.29;59.28
59545;BME280;45368;55.002;-1.592;2023-02-13T10:09:53;102531.17;;;2.40;60.28
59545;BME280;45368;55.002;-1.592;2023-02-13T10:12:35;102529.62;;;2.51;59.86
59545;BME280;45368;55.002;-1.592;2023-02-13T10:15:17;102531.84;;;3.26;59.40
59545;BME280;45368;55.002;-1.592;2023-02-13T10:17:55;102529.94;;;3.59;58.25
59545;BME280;45368;55.002;-1.592;2023-02-13T10:20:30;102533.69;;;2.53;59.99
59545;BME280;45368;55.002;-1.592;2023-02-13T10:23:07;102528.11;;;3.59;58.18
59545;BME280;45368;55.002;-1.592;2023-02-13T10:25:43;102533.33;;;4.08;56.93
59545;BME280;45368;55.002;-1.592;2023-02-13T10:28:16;102539.53;;;3.74;57.17
59545;BME280;45368;55.002;-1.592;2023-02-13T10:30:53;102535.45;;;3.49;57.78
59545;BME280;45368;55.002;-1.592;2023-02-13T10:33:27;102542.18;;;3.10;59.48
59545;BME280;45368;55.002;-1.592;2023-02-13T10:36:00;102541.56;;;3.34;58.69
59545;BME280;45368;55.002;-1.592;2023-02-13T10:38:30;102539.76;;;3.84;58.22
59545;BME280;45368;55.002;-1.592;2023-02-13T10:41:05;102538.38;;;3.93;57.72
59545;BME280;45368;55.002;-1.592;2023-02-13T10:43:38;102533.20;;;4.34;56.85
59545;BME280;45368;55.002;-1.592;2023-02-13T10:46:14;102526.64;;;4.62;55.61
59545;BME280;45368;55.002;-1.592;2023-02-13T10:48:58;102521.68;;;5.46;54.40
59545;BME280;45368;55.002;-1.592;2023-02-13T10:51:32;102508.87;;;5.61;53.02
59545;BME280;45368;55.002;-1.592;2023-02-13T10:54:18;102506.38;;;5.41;53.04
59545;BME280;45368;55.002;-1.592;2023-02-13T10:56:51;102503.84;;;4.99;55.12
59545;BME280;45368;55.002;-1.592;2023-02-13T10:59:34;102494.91;;;7.37;49.74
59545;BME280;45368;55.002;-1.592;2023-02-13T11:02:19;102491.52;;;8.01;47.82
59545;BME280;45368;55.002;-1.592;2023-02-13T11:04:50;102494.12;;;8.07;46.98
59545;BME280;45368;55.002;-1.592;2023-02-13T11:07:20;102501.06;;;7.64;47.55
59545;BME280;45368;55.002;-1.592;2023-02-13T11:09:50;102507.29;;;7.32;49.66
59545;BME280;45368;55.002;-1.592;2023-02-13T11:12:26;102505.20;;;6.89;50.04
59545;BME280;45368;55.002;-1.592;2023-02-13T11:14:56;102504.99;;;6.45;51.17
59545;BME280;45368;55.002;-1.592;2023-02-13T11:17:25;102493.81;;;7.78;48.49
59545;BME280;45368;55.002;-1.592;2023-02-13T11:19:54;102489.04;;;7.61;47.73
59545;BME280;45368;55.002;-1.592;2023-02-13T11:22:30;102483.75;;;8.22;46.86
59545;BME280;45368;55.002;-1.592;2023-02-13T11:24:58;102482.99;;;8.44;46.87
59545;BME280;45368;55.002;-1.592;2023-02-13T11:27:31;102474.37;;;8.79;45.80
59545;BME280;45368;55.002;-1.592;2023-02-13T11:30:00;102472.49;;;7.53;48.55
59545;BME280;45368;55.002;-1.592;2023-02-13T11:32:31;102475.65;;;7.46;49.78
59545;BME280;45368;55.002;-1.592;2023-02-13T11:35:20;102480.10;;;6.74;50.20
59545;BME280;45368;55.002;-1.592;2023-02-13T11:38:11;102467.26;;;8.07;48.26
59545;BME280;45368;55.002;-1.592;2023-02-13T11:40:40;102454.54;;;8.03;47.81
59545;BME280;45368;55.002;-1.592;2023-02-13T11:43:17;102456.02;;;9.51;45.35
59545;BME280;45368;55.002;-1.592;2023-02-13T11:45:45;102460.88;;;8.49;46.34
59545;BME280;45368;55.002;-1.592;2023-02-13T11:48:20;102457.56;;;8.26;47.66
59545;BME280;45368;55.002;-1.592;2023-02-13T11:50:51;102448.42;;;9.46;45.22
59545;BME280;45368;55.002;-1.592;2023-02-13T11:53:21;102455.31;;;7.48;48.64
59545;BME280;45368;55.002;-1.592;2023-02-13T11:56:02;102447.00;;;9.04;45.98
59545;BME280;45368;55.002;-1.592;2023-02-13T11:58:30;102440.42;;;9.53;44.88
59545;BME280;45368;55.002;-1.592;2023-02-13T12:01:13;102442.21;;;8.80;45.41
59545;BME280;45368;55.002;-1.592;2023-02-13T12:04:00;102447.36;;;7.50;48.65
59545;BME280;45368;55.002;-1.592;2023-02-13T12:06:28;102443.28;;;7.34;49.82
59545;BME280;45368;55.002;-1.592;2023-02-13T12:08:55;102448.07;;;5.84;52.29
59545;BME280;45368;55.002;-1.592;2023-02-13T12:11:38;102443.38;;;5.48;53.30
59545;BME280;45368;55.002;-1.592;2023-02-13T12:14:10;102433.82;;;6.07;52.09
59545;BME280;45368;55.002;-1.592;2023-02-13T12:16:42;102423.60;;;6.74;50.70
59545;BME280;45368;55.002;-1.592;2023-02-13T12:19:17;102417.31;;;5.78;52.60
59545;BME280;45368;55.002;-1.592;2023-02-13T12:22:00;102421.32;;;6.02;53.58
59545;BME280;45368;55.002;-1.592;2023-02-13T12:24:46;102429.19;;;5.87;53.33
59545;BME280;45368;55.002;-1.592;2023-02-13T12:27:21;102429.31;;;6.13;53.00
59545;BME280;45368;55.002;-1.592;2023-02-13T12:30:05;102416.18;;;6.63;51.86
59545;BME280;45368;55.002;-1.592;2023-02-13T12:32:46;102409.46;;;6.61;51.95
59545;BME280;45368;55.002;-1.592;2023-02-13T12:35:31;102415.66;;;6.17;52.85
59545;BME280;45368;55.002;-1.592;2023-02-13T12:38:15;102414.87;;;5.84;53.25
59545;BME280;45368;55.002;-1.592;2023-02-13T12:40:57;102411.84;;;6.40;52.82
59545;BME280;45368;55.002;-1.592;2023-02-13T12:43:53;102415.45;;;5.58;55.59
59545;BME280;45368;55.002;-1.592;2023-02-13T12:46:28;102413.06;;;5.25;56.33
59545;BME280;45368;55.002;-1.592;2023-02-13T12:49:03;102401.43;;;5.81;54.91
59545;BME280;45368;55.002;-1.592;2023-02-13T12:51:47;102396.96;;;4.89;56.41
59545;BME280;45368;55.002;-1.592;2023-02-13T12:54:31;102394.26;;;5.53;55.87
59545;BME280;45368;55.002;-1.592;2023-02-13T12:57:12;102394.51;;;5.48;55.36
59545;BME280;45368;55.002;-1.592;2023-02-13T12:59:57;102400.57;;;5.53;55.43
59545;BME280;45368;55.002;-1.592;2023-02-13T13:03:31;102410.80;;;5.54;55.74
59545;BME280;45368;55.002;-1.592;2023-02-13T13:06:09;102403.77;;;5.85;54.62
59545;BME280;45368;55.002;-1.592;2023-02-13T13:08:50;102399.78;;;6.27;54.49
59545;BME280;45368;55.002;-1.592;2023-02-13T13:11:32;102405.97;;;5.89;53.86
59545;BME280;45368;55.002;-1.592;2023-02-13T13:14:11;102393.11;;;6.67;52.83